sensor_id;sensor_type;location;lat;lon;timestamp;P1;durP1;ratioP1;P2;durP2;ratioP2
37495;SDS011;23346;52.088;4.746;2022-11-20T00:00:38;19.37;;;9.80;;
37495;SDS011;23346;52.088;4.746;2022-11-20T00:03:04;27.03;;;11.20;;
37495;SDS011;23346;52.088;4.746;2022-11-20T00:05:32;18.53;;;9.93;;
37495;SDS011;23346;52.088;4.746;2022-11-20T00:07:58;18.80;;;9.83;;
37495;SDS011;23346;52.088;4.746;2022-11-20T00:10:24;26.93;;;10.47;;
37495;SDS011;23346;52.088;4.746;2022-11-20T00:12:50;16.83;;;8.77;;
37495;SDS011;23346;52.088;4.746;2022-11-20T00:15:16;20.63;;;10.30;;
37495;SDS011;23346;52.088;4.746;2022-11-20T00:17:42;18.00;;;10.27;;
37495;SDS011;23346;52.088;4.746;2022-11-20T00:20:08;19.20;;;9.83;;
37495;SDS011;23346;52.088;4.746;2022-11-20T00:22:34;18.63;;;10.03;;
37495;SDS011;23346;52.088;4.746;2022-11-20T00:25:00;21.13;;;10.27;;
37495;SDS011;23346;52.088;4.746;2022-11-20T00:27:26;21.43;;;10.20;;
37495;SDS011;23346;52.088;4.746;2022-11-20T00:29:52;20.70;;;10.00;;
37495;SDS011;23346;52.088;4.746;2022-11-20T00:32:18;21.33;;;10.73;;
37495;SDS011;23346;52.088;4.746;2022-11-20T00:34:44;18.50;;;10.17;;
37495;SDS011;23346;52.088;4.746;2022-11-20T00:37:10;21.37;;;10.47;;
37495;SDS011;23346;52.088;4.746;2022-11-20T00:39:36;17.50;;;9.10;;
37495;SDS011;23346;52.088;4.746;2022-11-20T00:42:02;22.23;;;10.90;;
37495;SDS011;23346;52.088;4.746;2022-11-20T00:44:28;22.27;;;12.00;;
37495;SDS011;23346;52.088;4.746;2022-11-20T00:46:54;18.50;;;10.70;;
37495;SDS011;23346;52.088;4.746;2022-11-20T00:49:20;21.23;;;10.57;;
37495;SDS011;23346;52.088;4.746;2022-11-20T00:51:46;21.50;;;10.13;;
37495;SDS011;23346;52.088;4.746;2022-11-20T00:54:12;23.43;;;10.77;;
37495;SDS011;23346;52.088;4.746;2022-11-20T00:56:38;25.17;;;12.63;;
37495;SDS011;23346;52.088;4.746;2022-11-20T00:59:05;21.33;;;11.83;;
37495;SDS011;23346;52.088;4.746;2022-11-20T01:01:31;18.73;;;10.47;;
37495;SDS011;23346;52.088;4.746;2022-11-20T01:03:57;22.47;;;10.97;;
37495;SDS011;23346;52.088;4.746;2022-11-20T01:06:24;17.23;;;9.63;;
37495;SDS011;23346;52.088;4.746;2022-11-20T01:08:52;22.23;;;11.43;;
37495;SDS011;23346;52.088;4.746;2022-11-20T01:11:19;22.73;;;11.50;;
37495;SDS011;23346;52.088;4.746;2022-11-20T01:13:47;19.87;;;10.13;;
37495;SDS011;23346;52.088;4.746;2022-11-20T01:16:16;29.13;;;10.47;;
37495;SDS011;23346;52.088;4.746;2022-11-20T01:18:43;22.03;;;10.40;;
37495;SDS011;23346;52.088;4.746;2022-11-20T01:21:10;20.30;;;11.33;;
37495;SDS011;23346;52.088;4.746;2022-11-20T01:23:37;20.53;;;11.03;;
37495;SDS011;23346;52.088;4.746;2022-11-20T01:26:04;22.23;;;11.07;;
37495;SDS011;23346;52.088;4.746;2022-11-20T01:28:31;24.53;;;11.77;;
37495;SDS011;23346;52.088;4.746;2022-11-20T01:30:57;26.63;;;11.70;;
37495;SDS011;23346;52.088;4.746;2022-11-20T01:33:24;24.83;;;11.60;;
37495;SDS011;23346;52.088;4.746;2022-11-20T01:35:51;17.93;;;11.07;;
37495;SDS011;23346;52.088;4.746;2022-11-20T01:38:17;21.50;;;10.60;;
37495;SDS011;23346;52.088;4.746;2022-11-20T01:40:44;21.03;;;10.77;;
37495;SDS011;23346;52.088;4.746;2022-11-20T01:43:16;20.17;;;11.07;;
37495;SDS011;23346;52.088;4.746;2022-11-20T01:45:56;18.63;;;10.80;;
37495;SDS011;23346;52.088;4.746;2022-11-20T01:48:22;20.23;;;10.93;;
37495;SDS011;23346;52.088;4.746;2022-11-20T01:50:49;24.90;;;11.83;;
37495;SDS011;23346;52.088;4.746;2022-11-20T01:53:17;19.40;;;9.40;;
37495;SDS011;23346;52.088;4.746;2022-11-20T01:55:45;21.03;;;9.20;;
37495;SDS011;23346;52.088;4.746;2022-11-20T01:58:13;21.20;;;10.70;;
37495;SDS011;23346;52.088;4.746;2022-11-20T02:00:40;16.70;;;9.40;;
37495;SDS011;23346;52.088;4.746;2022-11-20T02:03:10;16.87;;;9.43;;
37495;SDS011;23346;52.088;4.746;2022-11-20T02:08:06;21.93;;;11.80;;
37495;SDS011;23346;52.088;4.746;2022-11-20T02:10:32;20.77;;;10.73;;
37495;SDS011;23346;52.088;4.746;2022-11-20T02:12:58;24.70;;;10.93;;
37495;SDS011;23346;52.088;4.746;2022-11-20T02:15:43;19.43;;;11.23;;
37495;SDS011;23346;52.088;4.746;2022-11-20T02:18:09;18.93;;;10.77;;
37495;SDS011;23346;52.088;4.746;2022-11-20T02:20:36;19.90;;;9.87;;
37495;SDS011;23346;52.088;4.746;2022-11-20T02:23:04;27.67;;;12.33;;
37495;SDS011;23346;52.088;4.746;2022-11-20T02:25:30;18.83;;;11.03;;
37495;SDS011;23346;52.088;4.746;2022-11-20T02:27:56;16.83;;;8.87;;
37495;SDS011;23346;52.088;4.746;2022-11-20T02:30:22;19.40;;;10.03;;
37495;SDS011;23346;52.088;4.746;2022-11-20T02:32:48;31.87;;;12.10;;
37495;SDS011;23346;52.088;4.746;2022-11-20T02:37:43;19.83;;;11.00;;
37495;SDS011;23346;52.088;4.746;2022-11-20T02:40:10;22.57;;;11.97;;
37495;SDS011;23346;52.088;4.746;2022-11-20T02:42:36;18.63;;;11.60;;
37495;SDS011;23346;52.088;4.746;2022-11-20T02:45:03;22.07;;;10.80;;
37495;SDS011;23346;52.088;4.746;2022-11-20T02:47:29;20.70;;;10.77;;
37495;SDS011;23346;52.088;4.746;2022-11-20T02:49:55;21.80;;;11.63;;
37495;SDS011;23346;52.088;4.746;2022-11-20T02:52:22;23.03;;;11.27;;
37495;SDS011;23346;52.088;4.746;2022-11-20T02:54:48;22.87;;;10.73;;
37495;SDS011;23346;52.088;4.746;2022-11-20T02:57:14;18.83;;;10.00;;
37495;SDS011;23346;52.088;4.746;2022-11-20T02:59:40;23.63;;;11.27;;
37495;SDS011;23346;52.088;4.746;2022-11-20T03:02:06;17.33;;;10.70;;
37495;SDS011;23346;52.088;4.746;2022-11-20T03:04:32;24.10;;;11.43;;
37495;SDS011;23346;52.088;4.746;2022-11-20T03:06:58;23.03;;;11.57;;
37495;SDS011;23346;52.088;4.746;2022-11-20T03:09:24;25.83;;;12.10;;
37495;SDS011;23346;52.088;4.746;2022-11-20T03:11:50;24.67;;;13.23;;
37495;SDS011;23346;52.088;4.746;2022-11-20T03:14:16;23.50;;;12.63;;
37495;SDS011;23346;52.088;4.746;2022-11-20T03:16:42;27.60;;;12.93;;
37495;SDS011;23346;52.088;4.746;2022-11-20T03:19:08;26.63;;;12.83;;
37495;SDS011;23346;52.088;4.746;2022-11-20T03:21:34;26.40;;;13.17;;
37495;SDS011;23346;52.088;4.746;2022-11-20T03:24:00;26.03;;;12.93;;
37495;SDS011;23346;52.088;4.746;2022-11-20T03:26:26;26.40;;;14.13;;
37495;SDS011;23346;52.088;4.746;2022-11-20T03:28:56;23.43;;;13.30;;
37495;SDS011;23346;52.088;4.746;2022-11-20T03:31:27;25.30;;;12.20;;
37495;SDS011;23346;52.088;4.746;2022-11-20T03:33:53;26.17;;;12.07;;
37495;SDS011;23346;52.088;4.746;2022-11-20T03:36:19;27.83;;;12.07;;
37495;SDS011;23346;52.088;4.746;2022-11-20T03:38:46;23.57;;;11.07;;
37495;SDS011;23346;52.088;4.746;2022-11-20T03:41:16;27.73;;;12.17;;
37495;SDS011;23346;52.088;4.746;2022-11-20T03:43:46;24.77;;;13.47;;
37495;SDS011;23346;52.088;4.746;2022-11-20T03:46:12;24.07;;;11.50;;
37495;SDS011;23346;52.088;4.746;2022-11-20T03:48:38;23.00;;;11.70;;
37495;SDS011;23346;52.088;4.746;2022-11-20T03:53:33;27.50;;;13.43;;
37495;SDS011;23346;52.088;4.746;2022-11-20T03:55:59;24.33;;;11.93;;
37495;SDS011;23346;52.088;4.746;2022-11-20T03:58:25;25.77;;;12.43;;
37495;SDS011;23346;52.088;4.746;2022-11-20T04:00:51;26.43;;;13.07;;
37495;SDS011;23346;52.088;4.746;2022-11-20T04:03:17;26.07;;;12.17;;
37495;SDS011;23346;52.088;4.746;2022-11-20T04:05:43;20.50;;;11.20;;
37495;SDS011;23346;52.088;4.746;2022-11-20T04:08:09;21.57;;;12.10;;
37495;SDS011;23346;52.088;4.746;2022-11-20T04:10:35;21.03;;;11.33;;
37495;SDS011;23346;52.088;4.746;2022-11-20T04:13:01;24.73;;;12.43;;
37495;SDS011;23346;52.088;4.746;2022-11-20T04:15:27;29.03;;;13.37;;
37495;SDS011;23346;52.088;4.746;2022-11-20T04:17:53;22.17;;;11.90;;
37495;SDS011;23346;52.088;4.746;2022-11-20T04:20:19;33.03;;;13.67;;
37495;SDS011;23346;52.088;4.746;2022-11-20T04:22:45;25.37;;;11.90;;
37495;SDS011;23346;52.088;4.746;2022-11-20T04:25:11;22.60;;;12.40;;
37495;SDS011;23346;52.088;4.746;2022-11-20T04:27:37;26.53;;;11.97;;
37495;SDS011;23346;52.088;4.746;2022-11-20T04:30:03;25.53;;;11.83;;
37495;SDS011;23346;52.088;4.746;2022-11-20T04:32:29;22.50;;;11.47;;
37495;SDS011;23346;52.088;4.746;2022-11-20T04:34:55;27.33;;;12.57;;
37495;SDS011;23346;52.088;4.746;2022-11-20T04:37:21;25.30;;;12.40;;
37495;SDS011;23346;52.088;4.746;2022-11-20T04:39:47;22.03;;;10.30;;
37495;SDS011;23346;52.088;4.746;2022-11-20T04:42:13;21.87;;;10.67;;
37495;SDS011;23346;52.088;4.746;2022-11-20T04:44:55;25.27;;;11.83;;
37495;SDS011;23346;52.088;4.746;2022-11-20T04:47:21;26.67;;;13.20;;
37495;SDS011;23346;52.088;4.746;2022-11-20T04:49:47;22.90;;;11.90;;
37495;SDS011;23346;52.088;4.746;2022-11-20T04:52:13;22.57;;;11.17;;
37495;SDS011;23346;52.088;4.746;2022-11-20T04:54:39;30.87;;;11.43;;
37495;SDS011;23346;52.088;4.746;2022-11-20T04:57:05;23.33;;;11.73;;
37495;SDS011;23346;52.088;4.746;2022-11-20T04:59:31;24.13;;;12.13;;
37495;SDS011;23346;52.088;4.746;2022-11-20T05:01:57;22.80;;;11.43;;
37495;SDS011;23346;52.088;4.746;2022-11-20T05:04:23;24.97;;;12.93;;
37495;SDS011;23346;52.088;4.746;2022-11-20T05:06:49;24.87;;;11.70;;
37495;SDS011;23346;52.088;4.746;2022-11-20T05:09:16;28.80;;;13.03;;
37495;SDS011;23346;52.088;4.746;2022-11-20T05:11:42;25.63;;;12.27;;
37495;SDS011;23346;52.088;4.746;2022-11-20T05:14:08;25.53;;;12.70;;
37495;SDS011;23346;52.088;4.746;2022-11-20T05:16:34;26.53;;;12.73;;
37495;SDS011;23346;52.088;4.746;2022-11-20T05:19:01;27.23;;;12.57;;
37495;SDS011;23346;52.088;4.746;2022-11-20T05:21:27;27.67;;;12.63;;
37495;SDS011;23346;52.088;4.746;2022-11-20T05:23:53;24.97;;;13.33;;
37495;SDS011;23346;52.088;4.746;2022-11-20T05:26:20;25.03;;;12.40;;
37495;SDS011;23346;52.088;4.746;2022-11-20T05:28:47;26.70;;;13.10;;
37495;SDS011;23346;52.088;4.746;2022-11-20T05:31:17;26.57;;;13.23;;
37495;SDS011;23346;52.088;4.746;2022-11-20T05:33:44;28.27;;;13.37;;
37495;SDS011;23346;52.088;4.746;2022-11-20T05:36:11;28.47;;;13.87;;
37495;SDS011;23346;52.088;4.746;2022-11-20T05:38:37;25.60;;;13.47;;
37495;SDS011;23346;52.088;4.746;2022-11-20T05:41:11;24.80;;;12.67;;
37495;SDS011;23346;52.088;4.746;2022-11-20T05:43:38;28.23;;;12.70;;
37495;SDS011;23346;52.088;4.746;2022-11-20T05:46:04;29.10;;;12.67;;
37495;SDS011;23346;52.088;4.746;2022-11-20T05:48:31;25.73;;;12.70;;
37495;SDS011;23346;52.088;4.746;2022-11-20T05:50:58;24.97;;;12.17;;
37495;SDS011;23346;52.088;4.746;2022-11-20T05:53:24;34.27;;;14.17;;
37495;SDS011;23346;52.088;4.746;2022-11-20T05:55:57;26.23;;;12.10;;
37495;SDS011;23346;52.088;4.746;2022-11-20T05:58:23;26.20;;;12.83;;
37495;SDS011;23346;52.088;4.746;2022-11-20T06:00:49;27.93;;;14.07;;
37495;SDS011;23346;52.088;4.746;2022-11-20T06:03:15;25.53;;;13.53;;
37495;SDS011;23346;52.088;4.746;2022-11-20T06:05:41;34.53;;;14.37;;
37495;SDS011;23346;52.088;4.746;2022-11-20T06:08:07;28.57;;;14.00;;
37495;SDS011;23346;52.088;4.746;2022-11-20T06:10:33;31.97;;;14.40;;
37495;SDS011;23346;52.088;4.746;2022-11-20T06:12:58;31.77;;;14.87;;
37495;SDS011;23346;52.088;4.746;2022-11-20T06:15:25;31.43;;;15.83;;
37495;SDS011;23346;52.088;4.746;2022-11-20T06:17:54;30.90;;;15.00;;
37495;SDS011;23346;52.088;4.746;2022-11-20T06:20:21;33.37;;;15.53;;
37495;SDS011;23346;52.088;4.746;2022-11-20T06:22:47;29.73;;;14.17;;
37495;SDS011;23346;52.088;4.746;2022-11-20T06:25:13;27.97;;;13.67;;
37495;SDS011;23346;52.088;4.746;2022-11-20T06:27:39;31.87;;;15.00;;
37495;SDS011;23346;52.088;4.746;2022-11-20T06:30:05;30.13;;;14.83;;
37495;SDS011;23346;52.088;4.746;2022-11-20T06:32:32;33.17;;;14.63;;
37495;SDS011;23346;52.088;4.746;2022-11-20T06:34:58;35.57;;;14.13;;
37495;SDS011;23346;52.088;4.746;2022-11-20T06:37:24;24.80;;;13.00;;
37495;SDS011;23346;52.088;4.746;2022-11-20T06:39:50;27.63;;;16.10;;
37495;SDS011;23346;52.088;4.746;2022-11-20T06:42:16;25.43;;;14.33;;
37495;SDS011;23346;52.088;4.746;2022-11-20T06:44:42;31.37;;;14.73;;
37495;SDS011;23346;52.088;4.746;2022-11-20T06:47:08;29.60;;;14.23;;
37495;SDS011;23346;52.088;4.746;2022-11-20T06:49:34;32.07;;;16.37;;
37495;SDS011;23346;52.088;4.746;2022-11-20T06:52:02;29.27;;;14.43;;
37495;SDS011;23346;52.088;4.746;2022-11-20T06:54:28;30.37;;;15.50;;
37495;SDS011;23346;52.088;4.746;2022-11-20T06:56:53;32.53;;;15.17;;
37495;SDS011;23346;52.088;4.746;2022-11-20T06:59:19;31.50;;;16.33;;
37495;SDS011;23346;52.088;4.746;2022-11-20T07:01:46;30.63;;;15.30;;
37495;SDS011;23346;52.088;4.746;2022-11-20T07:04:12;30.17;;;15.90;;
37495;SDS011;23346;52.088;4.746;2022-11-20T07:06:38;26.40;;;14.37;;
37495;SDS011;23346;52.088;4.746;2022-11-20T07:09:04;30.40;;;14.77;;
37495;SDS011;23346;52.088;4.746;2022-11-20T07:11:30;34.73;;;15.37;;
37495;SDS011;23346;52.088;4.746;2022-11-20T07:13:56;31.00;;;14.97;;
37495;SDS011;23346;52.088;4.746;2022-11-20T07:16:22;33.43;;;16.60;;
37495;SDS011;23346;52.088;4.746;2022-11-20T07:18:48;30.93;;;14.67;;
37495;SDS011;23346;52.088;4.746;2022-11-20T07:21:14;37.37;;;15.20;;
37495;SDS011;23346;52.088;4.746;2022-11-20T07:23:40;31.67;;;16.63;;
37495;SDS011;23346;52.088;4.746;2022-11-20T07:26:07;31.80;;;14.90;;
37495;SDS011;23346;52.088;4.746;2022-11-20T07:28:33;37.53;;;16.50;;
37495;SDS011;23346;52.088;4.746;2022-11-20T07:30:59;30.23;;;16.73;;
37495;SDS011;23346;52.088;4.746;2022-11-20T07:33:25;33.60;;;16.13;;
37495;SDS011;23346;52.088;4.746;2022-11-20T07:35:51;32.10;;;15.57;;
37495;SDS011;23346;52.088;4.746;2022-11-20T07:38:17;25.73;;;15.40;;
37495;SDS011;23346;52.088;4.746;2022-11-20T07:40:43;35.57;;;16.63;;
37495;SDS011;23346;52.088;4.746;2022-11-20T07:43:10;36.30;;;17.10;;
37495;SDS011;23346;52.088;4.746;2022-11-20T07:45:36;32.23;;;16.63;;
37495;SDS011;23346;52.088;4.746;2022-11-20T07:48:02;38.03;;;19.13;;
37495;SDS011;23346;52.088;4.746;2022-11-20T07:50:28;37.90;;;18.17;;
37495;SDS011;23346;52.088;4.746;2022-11-20T07:53:03;37.77;;;16.77;;
37495;SDS011;23346;52.088;4.746;2022-11-20T07:55:30;35.83;;;18.50;;
37495;SDS011;23346;52.088;4.746;2022-11-20T07:57:56;41.27;;;18.93;;
37495;SDS011;23346;52.088;4.746;2022-11-20T08:00:23;28.73;;;15.47;;
37495;SDS011;23346;52.088;4.746;2022-11-20T08:02:49;40.00;;;18.53;;
37495;SDS011;23346;52.088;4.746;2022-11-20T08:05:15;50.43;;;18.43;;
37495;SDS011;23346;52.088;4.746;2022-11-20T08:07:42;33.93;;;16.87;;
37495;SDS011;23346;52.088;4.746;2022-11-20T08:10:09;34.57;;;18.80;;
37495;SDS011;23346;52.088;4.746;2022-11-20T08:12:36;37.90;;;18.83;;
37495;SDS011;23346;52.088;4.746;2022-11-20T08:15:20;39.57;;;18.33;;
37495;SDS011;23346;52.088;4.746;2022-11-20T08:17:46;34.63;;;17.80;;
37495;SDS011;23346;52.088;4.746;2022-11-20T08:20:12;39.57;;;18.57;;
37495;SDS011;23346;52.088;4.746;2022-11-20T08:22:38;42.93;;;20.57;;
37495;SDS011;23346;52.088;4.746;2022-11-20T08:25:04;38.07;;;19.57;;
37495;SDS011;23346;52.088;4.746;2022-11-20T08:27:31;42.53;;;20.07;;
37495;SDS011;23346;52.088;4.746;2022-11-20T08:29:58;36.20;;;19.13;;
37495;SDS011;23346;52.088;4.746;2022-11-20T08:32:23;39.00;;;18.60;;
37495;SDS011;23346;52.088;4.746;2022-11-20T08:34:49;38.33;;;20.00;;
37495;SDS011;23346;52.088;4.746;2022-11-20T08:37:15;43.27;;;20.70;;
37495;SDS011;23346;52.088;4.746;2022-11-20T08:39:41;40.70;;;20.77;;
37495;SDS011;23346;52.088;4.746;2022-11-20T08:42:08;40.90;;;20.07;;
37495;SDS011;23346;52.088;4.746;2022-11-20T08:44:34;44.07;;;22.53;;
37495;SDS011;23346;52.088;4.746;2022-11-20T08:47:00;39.57;;;21.50;;
37495;SDS011;23346;52.088;4.746;2022-11-20T08:49:26;39.97;;;19.07;;
37495;SDS011;23346;52.088;4.746;2022-11-20T08:51:52;40.17;;;19.00;;
37495;SDS011;23346;52.088;4.746;2022-11-20T08:54:20;37.27;;;19.73;;
37495;SDS011;23346;52.088;4.746;2022-11-20T08:56:47;39.63;;;21.17;;
37495;SDS011;23346;52.088;4.746;2022-11-20T08:59:13;35.43;;;18.80;;
37495;SDS011;23346;52.088;4.746;2022-11-20T09:01:39;38.13;;;20.97;;
37495;SDS011;23346;52.088;4.746;2022-11-20T09:04:05;37.93;;;20.40;;
37495;SDS011;23346;52.088;4.746;2022-11-20T09:06:31;44.00;;;21.27;;
37495;SDS011;23346;52.088;4.746;2022-11-20T09:08:57;45.70;;;19.97;;
37495;SDS011;23346;52.088;4.746;2022-11-20T09:11:23;42.53;;;21.40;;
37495;SDS011;23346;52.088;4.746;2022-11-20T09:13:50;46.37;;;22.97;;
37495;SDS011;23346;52.088;4.746;2022-11-20T09:16:16;43.07;;;20.90;;
37495;SDS011;23346;52.088;4.746;2022-11-20T09:18:41;40.73;;;19.60;;
37495;SDS011;23346;52.088;4.746;2022-11-20T09:21:12;38.57;;;20.07;;
37495;SDS011;23346;52.088;4.746;2022-11-20T09:23:39;43.17;;;19.87;;
37495;SDS011;23346;52.088;4.746;2022-11-20T09:26:14;42.47;;;19.97;;
37495;SDS011;23346;52.088;4.746;2022-11-20T09:28:40;40.63;;;19.67;;
37495;SDS011;23346;52.088;4.746;2022-11-20T09:31:07;33.67;;;17.90;;
37495;SDS011;23346;52.088;4.746;2022-11-20T09:33:33;41.53;;;20.07;;
37495;SDS011;23346;52.088;4.746;2022-11-20T09:35:59;40.27;;;18.83;;
37495;SDS011;23346;52.088;4.746;2022-11-20T09:38:25;36.53;;;20.40;;
37495;SDS011;23346;52.088;4.746;2022-11-20T09:40:54;45.47;;;22.40;;
37495;SDS011;23346;52.088;4.746;2022-11-20T09:48:58;44.00;;;22.10;;
37495;SDS011;23346;52.088;4.746;2022-11-20T09:56:37;34.83;;;19.23;;
37495;SDS011;23346;52.088;4.746;2022-11-20T09:59:05;34.83;;;19.30;;
37495;SDS011;23346;52.088;4.746;2022-11-20T10:01:34;43.50;;;21.60;;
37495;SDS011;23346;52.088;4.746;2022-11-20T10:06:33;42.63;;;23.43;;
37495;SDS011;23346;52.088;4.746;2022-11-20T10:09:01;43.93;;;23.50;;
37495;SDS011;23346;52.088;4.746;2022-11-20T10:21:38;44.60;;;22.97;;
37495;SDS011;23346;52.088;4.746;2022-11-20T10:29:17;44.53;;;24.20;;
37495;SDS011;23346;52.088;4.746;2022-11-20T10:31:45;44.13;;;24.00;;
37495;SDS011;23346;52.088;4.746;2022-11-20T10:34:31;49.07;;;23.87;;
37495;SDS011;23346;52.088;4.746;2022-11-20T10:37:00;41.60;;;23.77;;
37495;SDS011;23346;52.088;4.746;2022-11-20T10:42:03;41.73;;;21.83;;
37495;SDS011;23346;52.088;4.746;2022-11-20T10:44:34;48.53;;;24.90;;
37495;SDS011;23346;52.088;4.746;2022-11-20T10:47:20;41.53;;;22.80;;
37495;SDS011;23346;52.088;4.746;2022-11-20T10:49:48;44.93;;;23.57;;
37495;SDS011;23346;52.088;4.746;2022-11-20T10:52:21;47.77;;;26.43;;
37495;SDS011;23346;52.088;4.746;2022-11-20T10:54:52;44.60;;;23.50;;
37495;SDS011;23346;52.088;4.746;2022-11-20T10:57:33;49.13;;;25.60;;
37495;SDS011;23346;52.088;4.746;2022-11-20T11:00:05;42.73;;;25.70;;
37495;SDS011;23346;52.088;4.746;2022-11-20T11:02:50;45.37;;;24.37;;
37495;SDS011;23346;52.088;4.746;2022-11-20T11:07:46;51.37;;;25.20;;
37495;SDS011;23346;52.088;4.746;2022-11-20T11:10:18;46.60;;;25.83;;
37495;SDS011;23346;52.088;4.746;2022-11-20T11:12:45;44.60;;;24.90;;
37495;SDS011;23346;52.088;4.746;2022-11-20T11:15:25;43.93;;;23.53;;
37495;SDS011;23346;52.088;4.746;2022-11-20T11:17:52;48.63;;;25.70;;
37495;SDS011;23346;52.088;4.746;2022-11-20T11:20:19;42.77;;;23.70;;
37495;SDS011;23346;52.088;4.746;2022-11-20T11:22:47;49.73;;;27.13;;
37495;SDS011;23346;52.088;4.746;2022-11-20T11:25:20;45.40;;;24.73;;
37495;SDS011;23346;52.088;4.746;2022-11-20T11:27:46;49.87;;;25.77;;
37495;SDS011;23346;52.088;4.746;2022-11-20T11:30:14;54.50;;;25.93;;
37495;SDS011;23346;52.088;4.746;2022-11-20T11:32:40;51.60;;;25.37;;
37495;SDS011;23346;52.088;4.746;2022-11-20T11:35:11;49.67;;;25.47;;
37495;SDS011;23346;52.088;4.746;2022-11-20T11:37:44;46.13;;;24.37;;
37495;SDS011;23346;52.088;4.746;2022-11-20T11:40:12;46.47;;;24.37;;
37495;SDS011;23346;52.088;4.746;2022-11-20T11:42:46;47.60;;;25.07;;
37495;SDS011;23346;52.088;4.746;2022-11-20T11:45:15;47.73;;;25.30;;
37495;SDS011;23346;52.088;4.746;2022-11-20T11:47:45;54.57;;;26.07;;
37495;SDS011;23346;52.088;4.746;2022-11-20T11:50:17;46.20;;;22.50;;
37495;SDS011;23346;52.088;4.746;2022-11-20T12:00:54;56.20;;;25.57;;
37495;SDS011;23346;52.088;4.746;2022-11-20T12:03:29;57.87;;;26.67;;
37495;SDS011;23346;52.088;4.746;2022-11-20T12:05:59;53.83;;;25.47;;
37495;SDS011;23346;52.088;4.746;2022-11-20T12:08:29;60.50;;;27.63;;
37495;SDS011;23346;52.088;4.746;2022-11-20T12:11:04;57.03;;;25.80;;
37495;SDS011;23346;52.088;4.746;2022-11-20T12:16:07;50.87;;;25.57;;
37495;SDS011;23346;52.088;4.746;2022-11-20T12:18:35;56.73;;;23.87;;
37495;SDS011;23346;52.088;4.746;2022-11-20T12:21:03;55.33;;;24.43;;
37495;SDS011;23346;52.088;4.746;2022-11-20T12:23:39;49.17;;;22.17;;
37495;SDS011;23346;52.088;4.746;2022-11-20T12:26:13;36.07;;;16.97;;
37495;SDS011;23346;52.088;4.746;2022-11-20T12:28:48;53.60;;;25.00;;
37495;SDS011;23346;52.088;4.746;2022-11-20T12:33:49;48.40;;;21.40;;
37495;SDS011;23346;52.088;4.746;2022-11-20T12:41:23;46.67;;;22.70;;
37495;SDS011;23346;52.088;4.746;2022-11-20T12:44:16;57.10;;;26.17;;
37495;SDS011;23346;52.088;4.746;2022-11-20T12:47:11;46.20;;;24.00;;
37495;SDS011;23346;52.088;4.746;2022-11-20T12:50:19;54.20;;;24.13;;
37495;SDS011;23346;52.088;4.746;2022-11-20T12:57:40;51.90;;;24.00;;
37495;SDS011;23346;52.088;4.746;2022-11-20T13:00:12;51.40;;;24.70;;
37495;SDS011;23346;52.088;4.746;2022-11-20T13:05:27;51.47;;;24.27;;
37495;SDS011;23346;52.088;4.746;2022-11-20T13:07:54;50.63;;;23.93;;
37495;SDS011;23346;52.088;4.746;2022-11-20T13:10:23;57.27;;;26.87;;
37495;SDS011;23346;52.088;4.746;2022-11-20T13:12:57;61.80;;;27.93;;
37495;SDS011;23346;52.088;4.746;2022-11-20T13:18:00;55.77;;;23.90;;
37495;SDS011;23346;52.088;4.746;2022-11-20T13:20:27;53.20;;;23.57;;
37495;SDS011;23346;52.088;4.746;2022-11-20T13:22:54;56.10;;;24.10;;
37495;SDS011;23346;52.088;4.746;2022-11-20T13:25:23;52.43;;;22.60;;
37495;SDS011;23346;52.088;4.746;2022-11-20T13:27:49;56.17;;;24.70;;
37495;SDS011;23346;52.088;4.746;2022-11-20T13:30:17;56.17;;;24.70;;
37495;SDS011;23346;52.088;4.746;2022-11-20T13:35:26;55.77;;;24.17;;
37495;SDS011;23346;52.088;4.746;2022-11-20T13:38:12;58.77;;;25.13;;
37495;SDS011;23346;52.088;4.746;2022-11-20T13:40:49;64.07;;;26.57;;
37495;SDS011;23346;52.088;4.746;2022-11-20T13:48:49;60.37;;;27.17;;
37495;SDS011;23346;52.088;4.746;2022-11-20T13:51:58;61.63;;;26.20;;
37495;SDS011;23346;52.088;4.746;2022-11-20T14:01:29;71.60;;;28.17;;
37495;SDS011;23346;52.088;4.746;2022-11-20T14:03:59;54.13;;;24.70;;
37495;SDS011;23346;52.088;4.746;2022-11-20T14:06:27;67.27;;;28.67;;
37495;SDS011;23346;52.088;4.746;2022-11-20T14:08:54;59.50;;;27.33;;
37495;SDS011;23346;52.088;4.746;2022-11-20T14:11:22;57.47;;;26.27;;
37495;SDS011;23346;52.088;4.746;2022-11-20T14:16:21;73.13;;;28.97;;
37495;SDS011;23346;52.088;4.746;2022-11-20T14:18:48;63.70;;;26.80;;
37495;SDS011;23346;52.088;4.746;2022-11-20T14:21:23;59.00;;;26.50;;
37495;SDS011;23346;52.088;4.746;2022-11-20T14:23:51;64.27;;;27.10;;
37495;SDS011;23346;52.088;4.746;2022-11-20T14:26:18;64.67;;;29.10;;
37495;SDS011;23346;52.088;4.746;2022-11-20T14:28:49;72.23;;;29.80;;
37495;SDS011;23346;52.088;4.746;2022-11-20T14:31:23;68.03;;;30.53;;
37495;SDS011;23346;52.088;4.746;2022-11-20T14:33:50;64.17;;;27.87;;
37495;SDS011;23346;52.088;4.746;2022-11-20T14:36:17;0.20;;;0.20;;
37495;SDS011;23346;52.088;4.746;2022-11-20T14:38:44;2.30;;;2.20;;
37495;SDS011;23346;52.088;4.746;2022-11-20T14:41:17;0.70;;;0.70;;
37495;SDS011;23346;52.088;4.746;2022-11-20T14:44:02;0.40;;;0.40;;
37495;SDS011;23346;52.088;4.746;2022-11-20T14:46:28;4.93;;;2.93;;
37495;SDS011;23346;52.088;4.746;2022-11-20T14:48:56;0.30;;;0.30;;
37495;SDS011;23346;52.088;4.746;2022-11-20T14:51:33;1.37;;;1.27;;
37495;SDS011;23346;52.088;4.746;2022-11-20T14:56:39;0.50;;;0.50;;
37495;SDS011;23346;52.088;4.746;2022-11-20T14:59:05;0.87;;;0.87;;
37495;SDS011;23346;52.088;4.746;2022-11-20T15:01:32;2.37;;;2.20;;
37495;SDS011;23346;52.088;4.746;2022-11-20T15:06:27;1.83;;;1.73;;
37495;SDS011;23346;52.088;4.746;2022-11-20T15:08:53;0.40;;;0.40;;
37495;SDS011;23346;52.088;4.746;2022-11-20T15:11:20;3.13;;;2.80;;
37495;SDS011;23346;52.088;4.746;2022-11-20T15:13:49;3.80;;;3.47;;
37495;SDS011;23346;52.088;4.746;2022-11-20T15:16:21;0.77;;;0.77;;
37495;SDS011;23346;52.088;4.746;2022-11-20T15:18:48;0.87;;;0.87;;
37495;SDS011;23346;52.088;4.746;2022-11-20T15:21:15;1.17;;;1.17;;
37495;SDS011;23346;52.088;4.746;2022-11-20T15:23:41;2.27;;;1.70;;
37495;SDS011;23346;52.088;4.746;2022-11-20T15:26:08;1.27;;;1.23;;
37495;SDS011;23346;52.088;4.746;2022-11-20T15:28:41;0.83;;;0.83;;
37495;SDS011;23346;52.088;4.746;2022-11-20T15:31:11;0.67;;;0.63;;
37495;SDS011;23346;52.088;4.746;2022-11-20T15:33:37;4.10;;;3.00;;
37495;SDS011;23346;52.088;4.746;2022-11-20T15:36:03;1.67;;;1.57;;
37495;SDS011;23346;52.088;4.746;2022-11-20T15:38:29;0.80;;;0.80;;
37495;SDS011;23346;52.088;4.746;2022-11-20T15:40:56;0.43;;;0.43;;
37495;SDS011;23346;52.088;4.746;2022-11-20T15:43:22;1.37;;;1.33;;
37495;SDS011;23346;52.088;4.746;2022-11-20T15:45:51;0.77;;;0.77;;
37495;SDS011;23346;52.088;4.746;2022-11-20T15:50:52;0.37;;;0.37;;
37495;SDS011;23346;52.088;4.746;2022-11-20T15:53:19;0.70;;;0.70;;
37495;SDS011;23346;52.088;4.746;2022-11-20T15:55:45;0.57;;;0.57;;
37495;SDS011;23346;52.088;4.746;2022-11-20T15:58:11;4.43;;;1.13;;
37495;SDS011;23346;52.088;4.746;2022-11-20T16:00:38;2.53;;;2.33;;
37495;SDS011;23346;52.088;4.746;2022-11-20T16:03:04;1.70;;;1.60;;